Time;durP1;ratioP1;P1;durP2;ratioP2;P2;SDS_P1;SDS_P2;PMS_P1;PMS_P2;Temp;Humidity;BMP_temperature;BMP_pressure;BME280_temperature;BME280_humidity;BME280_pressure;Samples;Min_cycle;Max_cycle;Signal;HPM_P1;HPM_P2
2023/08/16 00:02:02;;;;;;;5.07;4.50;;;22.70;99.90;;;;;;5094062;28;20206;-58
2023/08/16 00:04:28;;;;;;;5.22;4.30;;;22.70;99.90;;;;;;5087590;28;20199;-57
2023/08/16 00:06:54;;;;;;;4.85;4.43;;;22.60;99.90;;;;;;5098606;28;20194;-56
2023/08/16 00:09:20;;;;;;;4.53;4.10;;;22.50;99.90;;;;;;5103565;28;20291;-55
2023/08/16 00:11:46;;;;;;;5.43;4.43;;;22.50;99.90;;;;;;5090960;28;20276;-55
2023/08/16 00:14:11;;;;;;;4.63;4.22;;;22.40;99.90;;;;;;5096968;28;20201;-54
2023/08/16 00:16:37;;;;;;;7.60;5.03;;;22.20;99.90;;;;;;5101565;28;20197;-55
2023/08/16 00:19:03;;;;;;;4.73;4.43;;;22.20;99.90;;;;;;5084490;28;20296;-55
2023/08/16 00:21:28;;;;;;;6.90;4.57;;;22.20;99.90;;;;;;5100164;28;20258;-54
2023/08/16 00:23:54;;;;;;;5.03;4.57;;;22.10;99.90;;;;;;5102820;28;20823;-59
2023/08/16 00:26:20;;;;;;;5.50;4.77;;;22.10;99.90;;;;;;5098110;28;20232;-58
2023/08/16 00:28:47;;;;;;;5.10;4.60;;;22.00;99.90;;;;;;5097194;28;20256;-60
2023/08/16 00:31:13;;;;;;;6.27;5.17;;;22.10;99.90;;;;;;5092798;28;20832;-62
2023/08/16 00:33:38;;;;;;;5.20;4.37;;;22.20;99.90;;;;;;5084829;28;20918;-61
2023/08/16 00:36:04;;;;;;;5.28;4.53;;;22.20;99.90;;;;;;5097416;28;20272;-59
2023/08/16 00:38:29;;;;;;;5.50;4.97;;;22.20;99.90;;;;;;5077949;28;20193;-55
2023/08/16 00:40:57;;;;;;;8.40;4.43;;;22.20;99.90;;;;;;5099308;28;20208;-56
2023/08/16 00:43:23;;;;;;;5.60;4.63;;;22.20;99.90;;;;;;5095279;28;20271;-57
2023/08/16 00:45:49;;;;;;;5.07;4.50;;;22.30;99.90;;;;;;5097417;28;20239;-56
2023/08/16 00:48:14;;;;;;;4.93;4.30;;;22.20;99.90;;;;;;5095812;28;20193;-58
2023/08/16 00:50:40;;;;;;;7.10;3.87;;;22.20;99.90;;;;;;5085050;28;20844;-58
2023/08/16 00:53:06;;;;;;;3.90;3.60;;;22.30;99.90;;;;;;5089876;28;20190;-58
2023/08/16 00:55:33;;;;;;;4.10;3.80;;;22.30;99.90;;;;;;5070528;28;20586;-58
2023/08/16 00:57:59;;;;;;;4.57;4.20;;;22.30;99.90;;;;;;5097021;28;20198;-56
2023/08/16 01:00:24;;;;;;;4.30;3.90;;;22.40;99.90;;;;;;5092627;28;20228;-55
2023/08/16 01:02:50;;;;;;;4.83;4.30;;;22.50;99.90;;;;;;5092615;28;20227;-58
2023/08/16 01:05:16;;;;;;;4.80;4.40;;;22.50;99.90;;;;;;5096308;28;20329;-59
2023/08/16 01:07:41;;;;;;;4.97;3.90;;;22.60;99.90;;;;;;5095881;28;20197;-59
2023/08/16 01:10:08;;;;;;;4.40;4.00;;;22.60;99.90;;;;;;5101938;28;20201;-60
2023/08/16 01:12:36;;;;;;;4.53;3.95;;;22.50;99.90;;;;;;5094055;28;20385;-58
2023/08/16 01:15:08;;;;;;;4.83;4.33;;;22.40;99.90;;;;;;5094528;28;20196;-57
2023/08/16 01:17:33;;;;;;;4.97;4.57;;;22.30;99.90;;;;;;5075932;28;20552;-59
2023/08/16 01:20:00;;;;;;;5.40;5.00;;;22.30;99.90;;;;;;5095037;28;20193;-59
2023/08/16 01:22:42;;;;;;;4.77;4.37;;;22.40;99.90;;;;;;5095368;28;20177;-57
2023/08/16 01:25:30;;;;;;;5.20;4.73;;;22.20;99.90;;;;;;5092495;28;20254;-63
2023/08/16 01:27:57;;;;;;;4.97;4.60;;;22.10;99.90;;;;;;5094744;28;20230;-58
2023/08/16 01:30:24;;;;;;;4.70;4.30;;;22.10;99.90;;;;;;5075060;28;20729;-59
2023/08/16 01:32:49;;;;;;;5.97;4.97;;;22.00;99.90;;;;;;5092205;28;20617;-61
2023/08/16 01:35:15;;;;;;;5.53;4.47;;;21.90;99.90;;;;;;5095049;28;20192;-60
2023/08/16 01:37:42;;;;;;;7.57;5.87;;;21.90;99.90;;;;;;5098118;28;20197;-56
2023/08/16 01:40:09;;;;;;;5.23;4.73;;;21.70;99.90;;;;;;5096590;28;20184;-57
2023/08/16 01:42:42;;;;;;;14.10;7.60;;;21.60;99.90;;;;;;5093934;28;20185;-61
2023/08/16 01:45:08;;;;;;;6.10;5.50;;;21.60;99.90;;;;;;5090619;28;20210;-59
2023/08/16 01:47:35;;;;;;;6.13;5.63;;;21.50;99.90;;;;;;5095961;28;20306;-57
2023/08/16 01:50:01;;;;;;;6.20;5.43;;;21.60;99.90;;;;;;5099153;28;20220;-59
2023/08/16 01:52:28;;;;;;;6.43;4.90;;;21.70;99.90;;;;;;5094966;28;20660;-55
2023/08/16 01:54:53;;;;;;;4.93;4.53;;;21.70;99.90;;;;;;5097211;28;20193;-55
2023/08/16 01:57:19;;;;;;;6.20;4.83;;;21.70;99.90;;;;;;5095058;28;20249;-55
2023/08/16 01:59:44;;;;;;;5.20;4.70;;;21.70;99.90;;;;;;5092768;28;20273;-56
2023/08/16 02:02:10;;;;;;;5.20;4.70;;;21.70;99.90;;;;;;5090502;28;20208;-59
2023/08/16 02:04:35;;;;;;;5.37;4.57;;;21.80;99.90;;;;;;5092876;28;20192;-56
2023/08/16 02:07:01;;;;;;;9.07;4.67;;;21.90;99.90;;;;;;5090559;28;20197;-57
2023/08/16 02:09:26;;;;;;;6.63;4.83;;;21.90;99.90;;;;;;5091524;28;20342;-56
2023/08/16 02:11:52;;;;;;;5.57;5.07;;;21.70;99.90;;;;;;5092552;28;20676;-62
2023/08/16 02:14:18;;;;;;;5.90;5.33;;;21.70;99.90;;;;;;5094590;28;20181;-58
2023/08/16 02:16:44;;;;;;;7.77;4.90;;;21.60;99.90;;;;;;5090346;28;20184;-59
2023/08/16 02:19:10;;;;;;;5.80;5.20;;;21.70;99.90;;;;;;5095697;28;20207;-60
2023/08/16 02:21:35;;;;;;;5.43;4.93;;;21.70;99.90;;;;;;5071507;28;20192;-58
2023/08/16 02:24:02;;;;;;;5.00;4.60;;;21.80;99.90;;;;;;5093123;28;20217;-57
2023/08/16 02:26:27;;;;;;;5.57;5.03;;;21.90;99.90;;;;;;5092151;28;20209;-57
2023/08/16 02:28:53;;;;;;;8.63;5.70;;;22.00;99.90;;;;;;5090071;28;20622;-57
2023/08/16 02:31:18;;;;;;;6.57;5.93;;;22.00;99.90;;;;;;5095903;28;20894;-56
2023/08/16 02:33:44;;;;;;;5.30;4.80;;;22.00;99.90;;;;;;5075082;28;20652;-55
2023/08/16 02:36:09;;;;;;;5.50;5.00;;;22.00;99.90;;;;;;5093106;28;20203;-56
2023/08/16 02:38:35;;;;;;;5.63;5.23;;;22.00;99.90;;;;;;5095672;28;20630;-56
2023/08/16 02:41:01;;;;;;;5.43;5.03;;;22.00;99.90;;;;;;5091772;28;20270;-56
2023/08/16 02:43:26;;;;;;;5.53;4.97;;;22.10;99.90;;;;;;5090835;28;20193;-57
2023/08/16 02:45:53;;;;;;;5.57;5.18;;;22.20;99.90;;;;;;5090728;28;20213;-56
2023/08/16 02:48:19;;;;;;;5.77;5.17;;;22.20;99.90;;;;;;5091521;28;20262;-57
2023/08/16 02:50:45;;;;;;;6.10;5.40;;;22.10;99.90;;;;;;5077752;28;20220;-55
2023/08/16 02:53:11;;;;;;;7.97;5.25;;;22.00;99.90;;;;;;5093455;28;20684;-57
2023/08/16 02:55:38;;;;;;;7.10;5.87;;;21.90;99.90;;;;;;5092464;28;20255;-57
2023/08/16 02:58:04;;;;;;;9.80;5.30;;;21.90;99.90;;;;;;5091835;28;20241;-57
2023/08/16 03:00:29;;;;;;;6.63;5.93;;;21.80;99.90;;;;;;5091864;28;20253;-57
2023/08/16 03:02:55;;;;;;;6.17;5.27;;;21.90;99.90;;;;;;5092663;28;20177;-57
2023/08/16 03:05:21;;;;;;;6.37;5.87;;;22.00;99.90;;;;;;5071521;28;20244;-58
2023/08/16 03:07:46;;;;;;;6.07;5.50;;;22.00;99.90;;;;;;5091918;28;20597;-59
2023/08/16 03:10:11;;;;;;;6.40;5.83;;;21.90;99.90;;;;;;5092254;28;20190;-59
2023/08/16 03:12:37;;;;;;;6.63;5.83;;;21.90;99.90;;;;;;5093072;28;20197;-58
2023/08/16 03:15:03;;;;;;;6.93;6.37;;;21.90;99.90;;;;;;5093018;28;20304;-59
2023/08/16 03:17:28;;;;;;;6.15;5.65;;;21.90;99.90;;;;;;5090122;28;20182;-58
2023/08/16 03:19:54;;;;;;;7.53;6.83;;;21.80;99.90;;;;;;5094380;28;20295;-58
2023/08/16 03:22:19;;;;;;;7.50;6.90;;;21.60;99.90;;;;;;5091686;28;20197;-59
2023/08/16 03:24:46;;;;;;;6.87;6.17;;;21.60;99.90;;;;;;5090520;28;20215;-58
2023/08/16 03:27:12;;;;;;;6.20;5.60;;;21.60;99.90;;;;;;5091793;28;20204;-58
2023/08/16 03:29:38;;;;;;;7.57;6.97;;;21.60;99.90;;;;;;5092577;28;20276;-59
2023/08/16 03:32:04;;;;;;;6.93;6.43;;;21.60;99.90;;;;;;5090635;28;20191;-56
2023/08/16 03:34:30;;;;;;;8.03;6.63;;;21.60;99.90;;;;;;5072510;28;20734;-56
2023/08/16 03:36:56;;;;;;;8.30;6.93;;;21.60;99.90;;;;;;5074985;28;20259;-58
2023/08/16 03:39:22;;;;;;;7.60;6.83;;;21.60;99.90;;;;;;5098779;28;20197;-58
2023/08/16 03:41:47;;;;;;;9.10;6.43;;;21.60;99.90;;;;;;5097529;28;20629;-57
2023/08/16 03:44:13;;;;;;;6.97;6.47;;;21.70;99.90;;;;;;5093323;28;20734;-55
2023/08/16 03:46:38;;;;;;;9.63;8.13;;;21.70;99.90;;;;;;5097761;28;20304;-56
2023/08/16 03:49:04;;;;;;;7.10;6.40;;;21.70;99.90;;;;;;5095182;28;20192;-56
2023/08/16 03:51:29;;;;;;;7.60;6.90;;;21.60;99.90;;;;;;5095003;28;20238;-56
2023/08/16 03:53:55;;;;;;;7.33;6.73;;;21.60;99.90;;;;;;5095973;28;20663;-56
2023/08/16 03:56:21;;;;;;;7.90;7.10;;;21.60;99.90;;;;;;5098875;28;20221;-56
2023/08/16 03:58:46;;;;;;;7.87;7.17;;;21.60;99.90;;;;;;5099277;28;20241;-56
2023/08/16 04:01:11;;;;;;;8.40;7.57;;;21.60;99.90;;;;;;5078650;28;20186;-57
2023/08/16 04:03:37;;;;;;;6.97;6.27;;;21.40;99.90;;;;;;5094372;28;20951;-57
2023/08/16 04:06:04;;;;;;;7.60;6.93;;;21.30;99.90;;;;;;5096303;28;20332;-56
2023/08/16 04:08:30;;;;;;;8.30;7.47;;;21.30;99.90;;;;;;5092434;28;20181;-56
2023/08/16 04:10:55;;;;;;;10.60;8.73;;;21.20;99.90;;;;;;5098417;28;20258;-60
2023/08/16 04:13:21;;;;;;;10.53;7.43;;;21.20;99.90;;;;;;5077444;28;20200;-61
2023/08/16 04:15:48;;;;;;;7.53;6.73;;;21.20;99.90;;;;;;5076828;28;20264;-58
2023/08/16 04:18:14;;;;;;;7.37;6.77;;;21.30;99.90;;;;;;5095367;28;20292;-55
2023/08/16 04:20:39;;;;;;;7.27;6.17;;;21.40;99.90;;;;;;5080026;28;20288;-54
2023/08/16 04:23:05;;;;;;;6.80;6.20;;;21.40;99.90;;;;;;5093509;28;20198;-54
2023/08/16 04:25:30;;;;;;;8.90;6.43;;;21.40;99.90;;;;;;5091872;28;20277;-55
2023/08/16 04:27:56;;;;;;;8.30;7.23;;;21.40;99.90;;;;;;5095409;28;20195;-56
2023/08/16 04:30:21;;;;;;;7.87;7.07;;;21.20;99.90;;;;;;5093520;28;20285;-56
2023/08/16 04:32:47;;;;;;;7.73;7.00;;;21.00;99.90;;;;;;5094456;28;20196;-57
2023/08/16 04:35:12;;;;;;;8.03;7.33;;;20.90;99.90;;;;;;5096772;28;20235;-56
2023/08/16 04:37:38;;;;;;;9.23;8.53;;;20.80;99.90;;;;;;5098586;28;20670;-56
2023/08/16 04:40:04;;;;;;;9.17;8.30;;;20.70;99.90;;;;;;5095791;28;20749;-56
2023/08/16 04:42:31;;;;;;;10.20;9.30;;;20.60;99.90;;;;;;5093097;28;20787;-56
2023/08/16 04:44:56;;;;;;;10.50;9.47;;;20.60;99.90;;;;;;5093656;28;20199;-56
2023/08/16 04:47:22;;;;;;;9.70;8.77;;;20.50;99.90;;;;;;5093648;28;20181;-56
2023/08/16 04:49:47;;;;;;;10.97;9.27;;;20.50;99.90;;;;;;5095745;28;20224;-57
2023/08/16 04:52:13;;;;;;;10.90;9.80;;;20.50;99.90;;;;;;5090542;28;20264;-57
2023/08/16 04:54:38;;;;;;;12.80;11.60;;;20.60;99.90;;;;;;5099029;28;20249;-57
2023/08/16 04:57:04;;;;;;;12.13;11.00;;;20.60;99.90;;;;;;5091120;28;20271;-57
2023/08/16 04:59:30;;;;;;;10.43;9.43;;;20.70;99.90;;;;;;5088912;28;20683;-56
2023/08/16 05:01:55;;;;;;;10.80;9.67;;;20.70;99.90;;;;;;5093181;28;20207;-58
2023/08/16 05:04:20;;;;;;;11.23;10.17;;;20.80;99.90;;;;;;5096014;28;20245;-58
2023/08/16 05:06:46;;;;;;;13.90;9.97;;;20.80;99.90;;;;;;5093270;28;20207;-57
2023/08/16 05:09:11;;;;;;;9.50;8.60;;;20.80;99.90;;;;;;5095527;28;20185;-58
2023/08/16 05:11:37;;;;;;;9.63;8.87;;;20.90;99.90;;;;;;5095380;28;20192;-58
2023/08/16 05:14:03;;;;;;;11.17;9.63;;;20.80;99.90;;;;;;5093047;28;20209;-57
2023/08/16 05:16:28;;;;;;;9.13;8.43;;;20.90;99.90;;;;;;5094722;28;20566;-57
2023/08/16 05:18:57;;;;;;;10.70;9.70;;;21.00;99.90;;;;;;5095691;28;20255;-57
2023/08/16 05:21:23;;;;;;;10.70;9.53;;;21.00;99.90;;;;;;5078022;28;20295;-57
2023/08/16 05:23:48;;;;;;;10.57;9.47;;;21.00;99.90;;;;;;5094382;28;20195;-57
2023/08/16 05:26:14;;;;;;;9.97;8.97;;;20.90;99.90;;;;;;5092119;28;20229;-57
2023/08/16 05:28:39;;;;;;;9.73;8.83;;;20.80;99.90;;;;;;5099066;28;20253;-57
2023/08/16 05:31:07;;;;;;;10.53;9.30;;;20.70;99.90;;;;;;5098538;28;20351;-58
2023/08/16 05:33:32;;;;;;;11.23;9.67;;;20.70;99.90;;;;;;5091369;28;20192;-67
2023/08/16 05:35:58;;;;;;;12.13;9.97;;;20.70;99.90;;;;;;5100002;28;20644;-58
2023/08/16 05:38:23;;;;;;;18.77;16.73;;;20.80;99.90;;;;;;5079321;28;20250;-58
2023/08/16 05:40:49;;;;;;;11.33;10.03;;;20.80;99.90;;;;;;5100996;28;20192;-58
2023/08/16 05:43:14;;;;;;;10.63;9.53;;;20.90;99.90;;;;;;5098260;28;20220;-58
2023/08/16 05:45:40;;;;;;;11.70;10.50;;;20.90;99.90;;;;;;5093468;28;20358;-57
2023/08/16 05:48:05;;;;;;;11.10;10.00;;;20.90;99.90;;;;;;5098990;28;20208;-56
2023/08/16 05:50:31;;;;;;;12.33;11.03;;;21.00;99.90;;;;;;5094927;28;20622;-56
2023/08/16 05:52:56;;;;;;;14.17;12.87;;;21.20;99.90;;;;;;5090760;28;20201;-56
2023/08/16 05:55:22;;;;;;;13.30;12.00;;;21.30;99.90;;;;;;5091996;28;20272;-56
2023/08/16 05:57:47;;;;;;;14.30;12.83;;;21.30;99.90;;;;;;5094176;28;20652;-57
2023/08/16 06:00:13;;;;;;;17.47;15.73;;;21.30;99.90;;;;;;5101046;28;20180;-57
2023/08/16 06:02:39;;;;;;;16.80;15.00;;;21.30;99.90;;;;;;5097723;28;20715;-57
2023/08/16 06:05:05;;;;;;;16.00;14.37;;;21.30;99.90;;;;;;5083156;28;20215;-57
2023/08/16 06:07:30;;;;;;;16.07;14.57;;;21.40;99.90;;;;;;5095307;28;20566;-57
2023/08/16 06:09:56;;;;;;;19.47;17.30;;;21.40;99.90;;;;;;5096728;28;20787;-57
2023/08/16 06:12:22;;;;;;;16.13;14.40;;;21.40;99.90;;;;;;5101899;28;20280;-57
2023/08/16 06:14:47;;;;;;;16.33;14.83;;;21.40;99.90;;;;;;5095864;28;20291;-57
2023/08/16 06:17:13;;;;;;;16.77;15.07;;;21.50;99.90;;;;;;5100942;28;20200;-57
2023/08/16 06:19:38;;;;;;;14.87;13.57;;;21.60;99.90;;;;;;5081644;28;20585;-57
2023/08/16 06:22:04;;;;;;;15.90;14.00;;;21.60;99.90;;;;;;5068486;28;20212;-58
2023/08/16 06:24:35;;;;;;;14.63;13.13;;;21.60;99.90;;;;;;5081608;28;20666;-57
2023/08/16 06:27:00;;;;;;;17.47;14.07;;;21.60;99.90;;;;;;5092351;28;20212;-58
2023/08/16 06:29:26;;;;;;;14.73;12.07;;;21.60;99.90;;;;;;5094085;28;20248;-57
2023/08/16 06:31:54;;;;;;;14.23;12.27;;;21.80;99.90;;;;;;5099440;28;20321;-56
2023/08/16 06:34:20;;;;;;;13.87;11.80;;;21.70;99.90;;;;;;5092394;28;20196;-58
2023/08/16 06:36:46;;;;;;;13.10;10.77;;;21.80;99.90;;;;;;5097924;28;20208;-56
2023/08/16 06:39:12;;;;;;;9.93;8.93;;;21.90;99.90;;;;;;5093326;28;20221;-56
2023/08/16 06:41:38;;;;;;;11.40;9.68;;;21.80;99.90;;;;;;5091228;28;20288;-56
2023/08/16 06:44:04;;;;;;;11.30;10.23;;;21.90;99.90;;;;;;5097754;28;20192;-56
2023/08/16 06:46:29;;;;;;;10.77;9.60;;;21.90;99.90;;;;;;5079691;28;20717;-56
2023/08/16 06:48:55;;;;;;;13.60;11.97;;;21.90;99.90;;;;;;5080328;28;20193;-56
2023/08/16 06:51:20;;;;;;;15.17;11.07;;;21.90;99.90;;;;;;5099886;28;20590;-56
2023/08/16 06:53:46;;;;;;;15.63;11.63;;;22.10;99.90;;;;;;5095905;28;20193;-56
2023/08/16 06:56:11;;;;;;;12.53;11.23;;;22.10;99.90;;;;;;5097328;28;20204;-55
2023/08/16 06:58:37;;;;;;;12.07;10.88;;;22.00;99.90;;;;;;5071976;28;20211;-55
2023/08/16 07:01:03;;;;;;;14.52;10.70;;;22.00;99.90;;;;;;5095933;28;20201;-56
2023/08/16 07:03:28;;;;;;;13.67;11.70;;;22.00;99.90;;;;;;5081266;28;20682;-56
2023/08/16 07:05:54;;;;;;;13.10;11.57;;;22.00;99.90;;;;;;5095086;28;20224;-56
2023/08/16 07:08:20;;;;;;;9.90;8.90;;;22.10;99.90;;;;;;5082042;28;20197;-57
2023/08/16 07:10:45;;;;;;;12.03;9.10;;;22.00;99.90;;;;;;5091765;28;20671;-56
2023/08/16 07:13:14;;;;;;;11.17;8.83;;;22.00;99.90;;;;;;5099131;28;20720;-56
2023/08/16 07:15:40;;;;;;;10.30;9.30;;;22.10;99.90;;;;;;5083967;28;20200;-57
2023/08/16 07:18:05;;;;;;;10.43;8.25;;;22.30;99.90;;;;;;5096653;28;20212;-58
2023/08/16 07:20:31;;;;;;;11.18;7.32;;;22.50;99.90;;;;;;5091870;28;20200;-59
2023/08/16 07:22:58;;;;;;;9.53;7.47;;;22.60;99.90;;;;;;5104937;28;20196;-58
2023/08/16 07:25:25;;;;;;;8.20;7.40;;;22.70;99.90;;;;;;5098732;28;20209;-58
2023/08/16 07:27:51;;;;;;;9.80;6.88;;;22.70;99.90;;;;;;5101216;28;20262;-58
2023/08/16 07:30:16;;;;;;;7.90;7.10;;;22.80;99.90;;;;;;5090053;28;20193;-57
2023/08/16 07:32:42;;;;;;;8.40;6.43;;;22.70;99.90;;;;;;5100519;28;20196;-59
2023/08/16 07:35:08;;;;;;;7.35;6.65;;;22.90;99.90;;;;;;5096358;28;20670;-63
2023/08/16 07:37:34;;;;;;;7.38;6.55;;;22.90;99.90;;;;;;5104052;28;20188;-59
2023/08/16 07:39:59;;;;;;;8.98;7.22;;;23.00;99.90;;;;;;5101510;28;20186;-57
2023/08/16 07:42:25;;;;;;;8.77;7.87;;;23.20;99.90;;;;;;5074937;28;20204;-57
2023/08/16 07:44:51;;;;;;;8.33;7.53;;;23.20;99.90;;;;;;5071433;28;20234;-57
2023/08/16 07:47:16;;;;;;;8.18;6.82;;;23.00;99.90;;;;;;5101221;28;20323;-59
2023/08/16 07:49:42;;;;;;;7.32;6.57;;;23.00;99.90;;;;;;5102145;28;20228;-60
2023/08/16 07:52:07;;;;;;;9.18;7.53;;;23.00;99.90;;;;;;5087064;28;20182;-59
2023/08/16 07:54:33;;;;;;;9.93;7.32;;;23.10;99.90;;;;;;5096479;28;20193;-65
2023/08/16 07:56:58;;;;;;;7.07;6.38;;;23.20;99.90;;;;;;5101702;28;20284;-57
2023/08/16 07:59:24;;;;;;;8.82;7.88;;;23.40;99.90;;;;;;5103083;28;20191;-57
2023/08/16 08:01:51;;;;;;;8.23;6.50;;;23.60;99.90;;;;;;5095706;28;20981;-55
2023/08/16 08:04:18;;;;;;;9.50;5.90;;;23.70;99.90;;;;;;5097628;28;20587;-57
2023/08/16 08:06:43;;;;;;;8.43;6.68;;;23.60;99.90;;;;;;5102167;28;20217;-63
2023/08/16 08:09:09;;;;;;;9.50;7.28;;;23.60;99.90;;;;;;5101544;28;20196;-62
2023/08/16 08:11:37;;;;;;;7.50;6.90;;;23.80;99.90;;;;;;5099742;28;20197;-64
2023/08/16 08:14:03;;;;;;;6.72;6.13;;;23.90;99.90;;;;;;5093726;28;20190;-56
2023/08/16 08:16:28;;;;;;;6.78;6.05;;;23.70;99.90;;;;;;5074584;28;20193;-56
2023/08/16 08:18:54;;;;;;;6.25;5.65;;;23.70;99.90;;;;;;5094442;28;20301;-56
2023/08/16 08:21:19;;;;;;;9.05;6.68;;;23.70;99.90;;;;;;5085863;28;20181;-57
2023/08/16 08:23:45;;;;;;;6.30;5.70;;;23.60;99.90;;;;;;5072208;28;20194;-58
2023/08/16 08:26:10;;;;;;;6.75;5.85;;;23.70;99.90;;;;;;5099762;28;20228;-59
2023/08/16 08:28:36;;;;;;;5.55;5.05;;;23.60;99.90;;;;;;5095651;28;20217;-57
2023/08/16 08:31:05;;;;;;;7.18;5.70;;;23.60;99.90;;;;;;5095356;28;20186;-55
2023/08/16 08:33:31;;;;;;;5.95;5.40;;;23.70;99.90;;;;;;5085306;28;20197;-55
2023/08/16 08:35:58;;;;;;;5.43;4.93;;;23.80;99.90;;;;;;5093802;28;20257;-55
2023/08/16 08:38:23;;;;;;;5.03;4.45;;;23.70;99.90;;;;;;5100534;28;20186;-62
2023/08/16 08:40:57;;;;;;;6.13;5.03;;;23.70;99.90;;;;;;5102827;28;20192;-62
2023/08/16 08:43:27;;;;;;;5.57;5.05;;;23.60;99.90;;;;;;5066174;28;20195;-60
2023/08/16 08:45:57;;;;;;;6.65;5.80;;;23.70;99.90;;;;;;5095365;28;20223;-61
2023/08/16 08:48:25;;;;;;;8.55;5.97;;;23.80;99.90;;;;;;5101699;28;20200;-63
2023/08/16 08:50:51;;;;;;;6.55;5.30;;;23.80;99.90;;;;;;5094902;28;20230;-65
2023/08/16 08:53:17;;;;;;;6.23;4.80;;;23.80;99.90;;;;;;5078659;28;20787;-55
2023/08/16 08:55:45;;;;;;;5.20;4.70;;;23.70;99.90;;;;;;5093397;28;20262;-55
2023/08/16 08:58:11;;;;;;;5.05;4.43;;;23.60;99.90;;;;;;5098064;28;20219;-58
2023/08/16 09:00:39;;;;;;;6.15;5.10;;;23.90;99.90;;;;;;5100406;28;20275;-57
2023/08/16 09:03:07;;;;;;;6.18;4.20;;;24.00;99.90;;;;;;5094377;28;21159;-64
2023/08/16 09:05:33;;;;;;;5.93;4.63;;;24.10;99.90;;;;;;5097847;28;20209;-64
2023/08/16 09:08:00;;;;;;;4.78;4.32;;;24.20;99.90;;;;;;5093692;28;20198;-64
2023/08/16 09:10:26;;;;;;;7.45;5.18;;;24.20;99.90;;;;;;5100397;28;20280;-58
2023/08/16 09:12:52;;;;;;;4.70;4.30;;;24.20;99.90;;;;;;5075566;28;20542;-62
2023/08/16 09:15:18;;;;;;;6.50;4.90;;;24.30;99.90;;;;;;5101396;28;20177;-62
2023/08/16 09:17:45;;;;;;;4.88;4.38;;;24.50;99.90;;;;;;5095774;28;20261;-63
2023/08/16 09:20:11;;;;;;;8.52;4.45;;;24.70;99.90;;;;;;5096821;28;20283;-67
2023/08/16 09:22:37;;;;;;;5.43;4.35;;;24.70;99.90;;;;;;5095394;28;20251;-61
2023/08/16 09:25:03;;;;;;;5.35;4.05;;;24.70;99.90;;;;;;5100450;28;20186;-60
2023/08/16 09:27:31;;;;;;;4.75;4.35;;;24.70;99.90;;;;;;5100156;28;20201;-61
2023/08/16 09:29:56;;;;;;;4.00;3.60;;;24.40;99.90;;;;;;5083612;28;20576;-62
2023/08/16 09:32:22;;;;;;;5.80;4.63;;;24.30;99.90;;;;;;5097005;28;20214;-62
2023/08/16 09:34:48;;;;;;;4.95;4.55;;;24.30;99.90;;;;;;5082420;28;20191;-58
2023/08/16 09:37:17;;;;;;;7.45;4.28;;;24.50;99.90;;;;;;5095416;28;20184;-59
2023/08/16 09:39:43;;;;;;;4.68;4.28;;;24.40;99.90;;;;;;5097135;28;20186;-56
2023/08/16 09:42:08;;;;;;;6.28;3.83;;;24.30;99.90;;;;;;5073915;28;20283;-56
2023/08/16 09:44:36;;;;;;;5.38;4.13;;;24.40;99.90;;;;;;5095493;28;20181;-61
2023/08/16 09:47:12;;;;;;;6.35;4.78;;;24.40;99.90;;;;;;5095928;28;20217;-62
2023/08/16 09:49:39;;;;;;;4.70;3.53;;;24.50;99.90;;;;;;5091807;28;20217;-62
2023/08/16 09:52:10;;;;;;;5.35;3.83;;;24.40;99.90;;;;;;5098791;28;20931;-62
2023/08/16 09:54:36;;;;;;;4.78;4.25;;;24.40;99.90;;;;;;5090602;28;20225;-62
2023/08/16 09:57:02;;;;;;;5.38;4.07;;;24.40;99.90;;;;;;5098959;28;21049;-62
2023/08/16 09:59:30;;;;;;;6.47;4.43;;;24.40;99.90;;;;;;5091959;28;20303;-62
2023/08/16 10:01:56;;;;;;;4.18;3.72;;;24.30;99.90;;;;;;5089852;28;20216;-61
2023/08/16 10:04:22;;;;;;;6.72;4.82;;;24.30;99.90;;;;;;5087567;28;20214;-61
2023/08/16 10:06:49;;;;;;;5.38;3.97;;;24.50;99.90;;;;;;5101475;28;20523;-61
2023/08/16 10:09:15;;;;;;;4.45;4.00;;;24.40;99.90;;;;;;5093096;28;20186;-57
2023/08/16 10:11:42;;;;;;;4.50;4.20;;;24.50;99.90;;;;;;5098459;28;20207;-56
2023/08/16 10:14:08;;;;;;;4.22;3.83;;;24.80;99.90;;;;;;5073487;28;20190;-59
2023/08/16 10:16:36;;;;;;;4.82;4.43;;;24.80;99.90;;;;;;5093337;28;20241;-57
2023/08/16 10:19:02;;;;;;;5.10;4.00;;;24.80;99.90;;;;;;5093044;28;20216;-65
2023/08/16 10:21:30;;;;;;;6.88;4.75;;;25.00;99.90;;;;;;5095250;28;20192;-66
2023/08/16 10:23:56;;;;;;;3.67;3.38;;;24.90;99.90;;;;;;5094535;28;20198;-66
2023/08/16 10:26:24;;;;;;;4.43;3.65;;;24.80;99.90;;;;;;5089176;28;20225;-70
2023/08/16 10:28:54;;;;;;;6.03;4.78;;;24.80;99.90;;;;;;5070620;28;20693;-65
2023/08/16 10:31:24;;;;;;;4.80;4.40;;;25.00;99.90;;;;;;5089622;28;20185;-65
2023/08/16 10:33:54;;;;;;;4.20;3.83;;;25.00;99.90;;;;;;5096087;28;20182;-65
2023/08/16 10:36:20;;;;;;;4.05;3.75;;;25.00;99.90;;;;;;5096974;28;20272;-66
2023/08/16 10:38:53;;;;;;;5.10;3.88;;;25.00;99.90;;;;;;5092886;28;20195;-64
2023/08/16 10:41:20;;;;;;;6.43;4.32;;;25.10;99.90;;;;;;5095152;28;20177;-62
2023/08/16 10:43:48;;;;;;;4.82;4.03;;;25.20;99.90;;;;;;5073083;28;20182;-64
2023/08/16 10:46:25;;;;;;;4.90;4.15;;;25.30;99.90;;;;;;5092189;28;20680;-58
2023/08/16 10:48:55;;;;;;;4.53;4.22;;;25.40;99.90;;;;;;5098197;28;20252;-59
2023/08/16 10:51:21;;;;;;;4.30;3.92;;;25.50;99.90;;;;;;5096317;28;21059;-60
2023/08/16 10:53:46;;;;;;;3.58;3.35;;;25.50;99.90;;;;;;5073904;28;20187;-59
2023/08/16 10:56:12;;;;;;;3.92;3.13;;;25.70;99.90;;;;;;5093477;28;20581;-64
2023/08/16 10:58:47;;;;;;;4.10;3.80;;;25.70;99.90;;;;;;5095636;28;20200;-57
2023/08/16 11:01:13;;;;;;;3.25;2.95;;;25.90;99.90;;;;;;5090478;28;20680;-56
2023/08/16 11:03:41;;;;;;;4.88;3.85;;;26.30;99.90;;;;;;5089489;28;20200;-57
2023/08/16 11:06:08;;;;;;;4.20;3.78;;;26.30;99.90;;;;;;5100693;28;20215;-57
2023/08/16 11:08:34;;;;;;;3.70;3.40;;;26.20;99.90;;;;;;5096508;28;20189;-57
2023/08/16 11:11:01;;;;;;;5.13;3.97;;;26.10;99.90;;;;;;5095426;28;20556;-57
2023/08/16 11:13:28;;;;;;;7.95;4.70;;;25.90;99.90;;;;;;5091159;28;20204;-63
2023/08/16 11:15:54;;;;;;;4.53;3.72;;;25.90;99.90;;;;;;5091673;28;20828;-57
2023/08/16 11:18:31;;;;;;;3.88;3.58;;;26.10;99.90;;;;;;5092971;28;20207;-63
2023/08/16 11:21:00;;;;;;;4.10;3.60;;;26.40;99.90;;;;;;5090351;28;20214;-58
2023/08/16 11:23:32;;;;;;;3.22;2.92;;;26.40;99.90;;;;;;5087827;28;20181;-59
2023/08/16 11:26:05;;;;;;;6.68;3.97;;;26.50;99.90;;;;;;5091682;28;20688;-62
2023/08/16 11:28:32;;;;;;;4.50;3.85;;;27.10;99.90;;;;;;5091134;28;20884;-58
2023/08/16 11:30:59;;;;;;;5.07;4.00;;;27.30;99.90;;;;;;5092459;28;20548;-59
2023/08/16 11:33:32;;;;;;;4.28;3.70;;;27.20;99.90;;;;;;5094220;28;20239;-59
2023/08/16 11:36:00;;;;;;;3.50;3.20;;;27.50;99.90;;;;;;5094135;28;20599;-60
2023/08/16 11:38:27;;;;;;;3.60;3.30;;;27.70;99.90;;;;;;5095285;28;20196;-60
2023/08/16 11:40:52;;;;;;;3.50;3.20;;;27.70;99.90;;;;;;5094769;28;20224;-62
2023/08/16 11:43:24;;;;;;;3.78;3.42;;;27.60;99.90;;;;;;5094527;28;20213;-59
2023/08/16 11:45:53;;;;;;;4.43;3.65;;;27.90;99.90;;;;;;5086661;28;20314;-64
2023/08/16 11:48:19;;;;;;;5.03;3.88;;;27.60;99.90;;;;;;5095379;28;20189;-64
2023/08/16 11:50:44;;;;;;;3.63;3.33;;;27.50;99.90;;;;;;5092877;28;20278;-64
2023/08/16 11:53:16;;;;;;;4.45;3.67;;;27.30;99.90;;;;;;5076164;28;20189;-64
2023/08/16 11:55:41;;;;;;;4.35;3.72;;;27.30;99.90;;;;;;5091858;28;20245;-64
2023/08/16 11:58:11;;;;;;;4.20;3.75;;;27.60;99.90;;;;;;5094132;28;20173;-63
2023/08/16 12:00:42;;;;;;;3.90;3.60;;;28.30;99.90;;;;;;5098994;28;20237;-64
2023/08/16 12:03:11;;;;;;;2.90;2.70;;;28.50;99.90;;;;;;5104356;28;20180;-64
2023/08/16 12:05:38;;;;;;;3.72;2.85;;;28.70;99.90;;;;;;5077706;28;20223;-65
2023/08/16 12:08:05;;;;;;;4.20;3.35;;;29.00;99.90;;;;;;5096321;28;20186;-66
2023/08/16 12:10:34;;;;;;;4.55;3.15;;;28.90;99.90;;;;;;5083376;28;20567;-56
2023/08/16 12:13:10;;;;;;;4.45;3.17;;;28.80;99.90;;;;;;5077432;28;20552;-60
2023/08/16 12:15:35;;;;;;;3.55;3.35;;;28.90;99.90;;;;;;5081246;28;20579;-60
2023/08/16 12:18:01;;;;;;;4.40;3.15;;;29.00;99.90;;;;;;5098143;28;20265;-61
2023/08/16 12:20:26;;;;;;;3.15;2.85;;;29.00;99.90;;;;;;5093161;28;20193;-59
2023/08/16 12:22:53;;;;;;;3.65;3.30;;;28.70;99.90;;;;;;5095446;28;20189;-59
2023/08/16 12:25:19;;;;;;;3.35;3.05;;;28.40;99.90;;;;;;5091055;28;20251;-65
2023/08/16 12:27:45;;;;;;;4.43;3.67;;;28.40;99.90;;;;;;5097062;28;20211;-70
2023/08/16 12:30:11;;;;;;;5.10;4.70;;;28.70;99.90;;;;;;5096438;28;20193;-58
2023/08/16 12:32:36;;;;;;;4.10;3.72;;;28.90;99.90;;;;;;5077811;28;20189;-59
2023/08/16 12:35:02;;;;;;;3.92;3.17;;;28.80;99.90;;;;;;5098570;28;20185;-60
2023/08/16 12:37:28;;;;;;;3.85;3.47;;;28.70;99.90;;;;;;5075813;28;20192;-59
2023/08/16 12:39:53;;;;;;;6.20;3.13;;;28.50;99.90;;;;;;5098249;28;20552;-59